Time;durP1;ratioP1;P1;durP2;ratioP2;P2;SDS_P1;SDS_P2;PMS_P1;PMS_P2;Temp;Humidity;BMP_temperature;BMP_pressure;BME280_temperature;BME280_humidity;BME280_pressure;Samples;Min_cycle;Max_cycle;Signal;HPM_P1;HPM_P2
2022/10/25 00:00:03;;;;;;;2.15;0.77;;;;;;;18.00;68.93;101053.91;6293811;22;20330;-87
2022/10/25 00:02:33;;;;;;;2.15;0.90;;;;;;;17.99;69.04;101052.22;6344617;22;20021;-87
2022/10/25 00:04:59;;;;;;;2.65;1.00;;;;;;;18.00;68.95;101053.06;6321277;22;20334;-84
2022/10/25 00:07:24;;;;;;;1.85;0.85;;;;;;;18.00;69.22;101053.91;6371111;22;20006;-88
2022/10/25 00:09:49;;;;;;;1.67;0.70;;;;;;;18.01;69.21;101062.63;6294115;22;20014;-87
2022/10/25 00:12:15;;;;;;;2.00;0.70;;;;;;;17.99;69.05;101062.63;6292561;22;20008;-87
2022/10/25 00:14:40;;;;;;;2.70;0.95;;;;;;;18.00;69.22;101063.47;6318178;22;20021;-87
2022/10/25 00:17:05;;;;;;;2.33;0.90;;;;;;;17.99;69.28;101065.22;6288614;22;1290195;-89
2022/10/25 00:19:31;;;;;;;2.33;0.82;;;;;;;17.99;69.33;101070.44;6361268;22;20014;-83
2022/10/25 00:21:56;;;;;;;1.83;0.80;;;;;;;18.00;69.00;101072.16;6374966;22;20009;-87
2022/10/25 00:24:22;;;;;;;2.25;0.88;;;;;;;18.00;69.21;101072.16;6319271;22;20010;-87
2022/10/25 00:26:47;;;;;;;2.45;0.93;;;;;;;18.00;69.02;101071.28;6344334;22;20007;-87
2022/10/25 00:29:13;;;;;;;2.35;0.93;;;;;;;17.99;69.00;101069.59;6292982;22;20014;-87
2022/10/25 00:31:38;;;;;;;2.13;0.75;;;;;;;18.00;69.05;101077.34;6344630;22;20006;-86
2022/10/25 00:34:04;;;;;;;2.95;0.90;;;;;;;17.99;69.10;101080.84;6319141;22;20014;-87
2022/10/25 00:36:29;;;;;;;2.20;0.90;;;;;;;18.00;69.13;101079.97;6319638;22;20006;-87
2022/10/25 00:38:57;;;;;;;1.90;1.00;;;;;;;17.99;68.90;101078.25;6319385;22;20010;-86
2022/10/25 00:41:28;;;;;;;2.38;0.90;;;;;;;18.01;69.00;101091.28;6345494;22;20446;-86
2022/10/25 00:44:15;;;;;;;2.13;0.80;;;;;;;17.99;68.95;101080.00;6371109;22;20017;-86
2022/10/25 00:46:42;;;;;;;2.30;0.93;;;;;;;18.00;68.83;101084.31;6371994;22;20002;-87
2022/10/25 00:49:11;;;;;;;2.65;0.90;;;;;;;17.98;69.00;101089.53;6319051;22;20013;-86
2022/10/25 00:51:40;;;;;;;1.73;0.68;;;;;;;17.98;69.25;101092.13;6346445;22;19998;-87
2022/10/25 00:54:09;;;;;;;2.28;0.80;;;;;;;17.99;69.07;101096.47;6346375;22;20393;-86
2022/10/25 00:56:38;;;;;;;3.05;0.93;;;;;;;17.99;68.68;101098.22;6372232;22;20010;-88
2022/10/25 00:59:07;;;;;;;4.15;0.90;;;;;;;18.00;69.00;101100.78;6346756;22;20039;-87
2022/10/25 01:01:34;;;;;;;1.30;0.57;;;;;;;17.99;69.04;101103.44;6360270;22;20028;-87
2022/10/25 01:04:05;;;;;;;2.58;0.80;;;;;;;17.98;69.06;101105.16;6320123;22;20430;-86
2022/10/25 01:06:36;;;;;;;2.92;1.00;;;;;;;18.00;68.87;101107.75;6346651;22;20426;-86
2022/10/25 01:09:02;;;;;;;1.58;0.80;;;;;;;17.99;68.85;101108.63;6347244;22;20092;-87
2022/10/25 01:11:27;;;;;;;1.70;0.90;;;;;;;17.99;68.88;101113.84;6346117;22;20027;-86
2022/10/25 01:13:54;;;;;;;2.08;0.85;;;;;;;17.99;68.79;101114.69;6346544;22;20097;-88
2022/10/25 01:16:59;;;;;;;2.45;0.93;;;;;;;17.99;68.83;101117.31;6321336;22;20006;-87
2022/10/25 01:19:44;;;;;;;2.72;0.93;;;;;;;17.98;68.68;101112.97;6378352;22;20037;-86
2022/10/25 01:22:47;;;;;;;1.58;0.80;;;;;;;17.99;68.87;101117.31;6346785;22;20094;-87
2022/10/25 01:26:01;;;;;;;3.15;0.90;;;;;;;17.99;69.02;101108.63;6376119;22;20010;-87
2022/10/25 01:38:53;;;;;;;1.98;0.88;;;;;;;17.97;68.97;101136.44;6379959;22;20041;-85
2022/10/25 01:41:31;;;;;;;1.88;0.70;;;;;;;17.98;68.75;101135.53;6348677;22;19998;-87
2022/10/25 01:44:42;;;;;;;1.40;0.60;;;;;;;17.99;68.92;101125.13;6358515;22;20071;-83
2022/10/25 01:47:24;;;;;;;3.70;0.93;;;;;;;17.98;68.87;101127.72;6350052;22;20351;-86
2022/10/25 01:49:56;;;;;;;1.83;0.63;;;;;;;17.97;68.97;101124.25;6351387;22;20013;-86
2022/10/25 01:52:22;;;;;;;1.60;0.70;;;;;;;17.97;68.88;101123.41;6357022;22;20018;-86
2022/10/25 01:54:49;;;;;;;2.72;1.00;;;;;;;17.98;68.80;101125.13;6336401;22;20035;-87
2022/10/25 01:57:51;;;;;;;1.27;0.70;;;;;;;17.97;68.76;101123.41;6381337;22;20009;-87
2022/10/25 02:00:23;;;;;;;2.00;0.85;;;;;;;17.97;68.83;101142.50;6309140;22;20425;-87
2022/10/25 02:02:56;;;;;;;1.75;0.80;;;;;;;17.99;68.74;101147.69;6332353;22;20007;-87
2022/10/25 02:05:49;;;;;;;3.90;1.10;;;;;;;17.98;68.92;101144.22;6347198;22;20013;-88
2022/10/25 02:08:41;;;;;;;2.45;0.90;;;;;;;17.98;68.73;101138.13;6347369;22;20017;-88
2022/10/25 02:11:27;;;;;;;2.22;0.75;;;;;;;17.97;68.76;101133.81;6310383;22;20082;-85
2022/10/25 02:14:30;;;;;;;2.80;0.90;;;;;;;17.98;68.77;101140.75;6376779;22;20449;-87
2022/10/25 02:17:23;;;;;;;3.05;1.00;;;;;;;17.97;68.89;101139.03;6347591;22;20022;-86
2022/10/25 02:19:51;;;;;;;2.22;0.80;;;;;;;17.98;68.76;101145.94;6346865;22;20010;-87
2022/10/25 02:22:20;;;;;;;2.20;0.80;;;;;;;17.96;68.56;101143.34;6346404;22;20089;-87
2022/10/25 02:24:49;;;;;;;1.90;0.75;;;;;;;17.96;69.00;101143.34;6345942;22;20002;-87
2022/10/25 02:27:16;;;;;;;2.17;0.80;;;;;;;17.96;68.65;101145.09;6358553;22;20405;-86
2022/10/25 02:29:44;;;;;;;2.20;0.70;;;;;;;17.96;68.71;101140.75;6348048;22;20010;-87
2022/10/25 02:32:09;;;;;;;1.80;0.68;;;;;;;17.96;68.70;101142.50;6319705;22;20006;-86
2022/10/25 02:34:35;;;;;;;2.45;0.80;;;;;;;17.96;68.97;101150.31;6293627;22;20007;-87
2022/10/25 02:37:00;;;;;;;2.05;0.65;;;;;;;17.96;68.89;101150.31;6319610;22;20015;-87
2022/10/25 02:39:28;;;;;;;1.70;0.63;;;;;;;17.95;68.52;101154.66;6319007;22;20094;-87
2022/10/25 02:41:54;;;;;;;1.25;0.60;;;;;;;17.96;68.52;101156.38;6372632;22;20005;-86
2022/10/25 02:44:19;;;;;;;1.58;0.75;;;;;;;17.96;68.72;101152.91;6345155;22;20006;-87
2022/10/25 02:46:44;;;;;;;1.55;0.68;;;;;;;17.96;68.72;101164.19;6370848;22;20041;-87
2022/10/25 02:49:10;;;;;;;3.05;0.77;;;;;;;17.96;68.65;101158.13;6319065;22;20312;-88
2022/10/25 02:51:36;;;;;;;1.77;0.60;;;;;;;17.96;68.78;101166.78;6319050;22;20007;-86
2022/10/25 02:54:01;;;;;;;1.77;0.60;;;;;;;17.96;68.72;101166.78;6319585;22;20066;-86
2022/10/25 02:56:27;;;;;;;1.73;0.68;;;;;;;17.96;68.31;101171.13;6294356;22;20311;-87
2022/10/25 02:58:55;;;;;;;1.35;0.60;;;;;;;17.96;68.56;101168.53;6345330;22;20093;-86
2022/10/25 03:01:21;;;;;;;1.65;0.85;;;;;;;17.94;68.73;101175.47;6345729;22;20521;-86
2022/10/25 03:03:47;;;;;;;2.22;0.77;;;;;;;17.95;68.57;101175.47;6345980;22;20013;-86
2022/10/25 03:06:13;;;;;;;1.98;0.77;;;;;;;17.94;68.72;101171.13;6346514;22;20081;-87
2022/10/25 03:08:40;;;;;;;1.92;0.77;;;;;;;17.94;68.65;101173.72;6329417;22;20014;-83
2022/10/25 03:11:07;;;;;;;2.45;0.70;;;;;;;17.95;68.65;101175.47;6350923;22;20029;-90
2022/10/25 03:13:33;;;;;;;3.13;0.63;;;;;;;17.95;68.66;101174.63;6349138;22;19994;-87
2022/10/25 03:15:59;;;;;;;2.35;0.73;;;;;;;17.95;68.55;101179.84;6350754;22;20056;-88
2022/10/25 03:18:24;;;;;;;1.85;0.60;;;;;;;17.94;68.74;101170.28;6352764;22;20342;-88
2022/10/25 03:20:50;;;;;;;2.15;0.70;;;;;;;17.95;68.81;101182.44;6326599;22;20334;-88
2022/10/25 03:23:16;;;;;;;2.20;0.68;;;;;;;17.96;68.77;101186.75;6351911;22;20005;-88
2022/10/25 03:25:42;;;;;;;1.55;0.80;;;;;;;17.95;68.71;101188.50;6379284;22;20006;-90
2022/10/25 03:28:07;;;;;;;2.08;0.80;;;;;;;17.95;68.62;101192.84;6300048;22;20389;-88
2022/10/25 03:30:33;;;;;;;1.85;0.82;;;;;;;17.94;68.59;101194.56;6304511;22;20009;-88
2022/10/25 03:32:59;;;;;;;2.10;0.70;;;;;;;17.96;68.46;101197.16;6328911;22;20087;-90
2022/10/25 03:35:25;;;;;;;2.83;1.02;;;;;;;17.93;68.39;101198.06;6304471;22;20405;-88
2022/10/25 03:37:51;;;;;;;2.50;0.80;;;;;;;17.95;68.78;101205.88;6351354;22;20040;-88
2022/10/25 03:40:17;;;;;;;1.92;0.70;;;;;;;17.94;68.63;101204.97;6351877;22;20006;-88
2022/10/25 03:42:43;;;;;;;1.60;0.70;;;;;;;17.95;68.57;101208.47;6353190;22;20050;-89
2022/10/25 03:45:09;;;;;;;2.88;0.80;;;;;;;17.95;68.51;101208.47;6350817;22;20090;-88
2022/10/25 03:47:34;;;;;;;2.63;0.80;;;;;;;17.95;68.45;101214.53;6376970;22;20006;-88
2022/10/25 03:50:00;;;;;;;2.13;0.70;;;;;;;17.93;68.76;101220.63;6323523;22;20006;-89
2022/10/25 03:52:25;;;;;;;1.92;0.70;;;;;;;17.93;68.75;101218.88;6338843;22;20007;-89
2022/10/25 03:54:51;;;;;;;3.30;0.85;;;;;;;17.95;68.54;101219.75;6321776;22;20011;-88
2022/10/25 03:57:16;;;;;;;3.92;0.77;;;;;;;17.93;68.62;101221.50;6322929;22;20338;-90
2022/10/25 03:59:43;;;;;;;1.85;0.70;;;;;;;17.94;68.73;101217.13;6349964;22;20010;-89
2022/10/25 04:02:09;;;;;;;1.60;0.70;;;;;;;17.93;68.52;101226.69;6347780;22;19998;-88
2022/10/25 04:04:35;;;;;;;2.28;0.70;;;;;;;17.93;68.65;101225.84;6324058;22;20441;-89
2022/10/25 04:07:00;;;;;;;1.45;0.50;;;;;;;17.94;68.53;101232.75;6322088;22;20143;-88
2022/10/25 04:09:33;;;;;;;1.70;0.60;;;;;;;17.94;68.48;101236.22;6322116;22;20338;-88
2022/10/25 04:11:58;;;;;;;2.78;0.80;;;;;;;17.92;68.43;101234.50;6349106;22;20017;-87
2022/10/25 04:14:24;;;;;;;1.48;0.63;;;;;;;17.93;68.63;101238.88;6297497;22;20437;-88
2022/10/25 04:16:49;;;;;;;0.98;0.55;;;;;;;17.92;68.67;101240.59;6296062;22;20018;-87
2022/10/25 04:19:15;;;;;;;2.10;0.80;;;;;;;17.92;68.63;101235.41;6321304;22;20002;-88
2022/10/25 04:21:40;;;;;;;3.22;0.85;;;;;;;17.94;68.70;101241.44;6296798;22;20016;-89
2022/10/25 04:24:06;;;;;;;1.58;0.70;;;;;;;17.93;68.58;101238.88;6292043;22;20011;-89
2022/10/25 04:26:33;;;;;;;1.42;0.68;;;;;;;17.92;68.42;101244.91;6297087;22;20008;-88
2022/10/25 04:28:59;;;;;;;2.00;0.70;;;;;;;17.92;68.57;101253.63;6350382;22;20006;-88
2022/10/25 04:31:25;;;;;;;1.80;0.60;;;;;;;17.93;68.58;101249.28;6375303;22;20006;-90
2022/10/25 04:33:52;;;;;;;2.70;0.73;;;;;;;17.92;68.29;101251.03;6358864;22;20049;-86
2022/10/25 04:36:18;;;;;;;2.10;0.70;;;;;;;17.93;68.36;101263.16;6357129;22;19994;-88
2022/10/25 04:38:49;;;;;;;2.65;0.70;;;;;;;17.93;68.44;101270.09;6378026;22;20473;-87
2022/10/25 04:41:15;;;;;;;1.08;0.60;;;;;;;17.91;68.33;101267.50;6349797;22;20033;-89
2022/10/25 04:50:24;;;;;;;1.48;0.60;;;;;;;17.91;68.52;101264.91;6383648;22;20098;-89
2022/10/25 04:52:50;;;;;;;1.60;0.57;;;;;;;17.92;68.25;101266.66;6350670;22;20006;-89
2022/10/25 04:55:15;;;;;;;1.65;0.60;;;;;;;17.92;68.42;101266.66;6323984;22;20033;-89
2022/10/25 04:57:40;;;;;;;1.80;0.68;;;;;;;17.91;68.59;101270.09;6316690;22;20010;-90
2022/10/25 05:00:06;;;;;;;1.83;0.60;;;;;;;17.90;68.41;101271.00;6345897;22;20002;-89
2022/10/25 05:02:32;;;;;;;2.63;0.85;;;;;;;17.92;68.30;101281.38;6324169;22;20056;-88
2022/10/25 05:04:57;;;;;;;1.13;0.50;;;;;;;17.91;68.35;101285.72;6320711;22;20006;-86
2022/10/25 05:07:22;;;;;;;2.90;0.73;;;;;;;17.91;68.49;101284.88;6296925;22;20014;-89
2022/10/25 05:09:48;;;;;;;3.03;0.75;;;;;;;17.89;68.40;101283.13;6325860;22;20010;-89
2022/10/25 05:12:14;;;;;;;2.25;1.10;;;;;;;17.91;68.27;101288.31;6324836;22;20014;-91
2022/10/25 05:14:39;;;;;;;3.45;1.30;;;;;;;17.91;68.33;101287.47;6350649;22;20002;-90
2022/10/25 05:17:04;;;;;;;5.88;1.42;;;;;;;17.92;68.41;101294.41;6360266;22;20014;-85
2022/10/25 05:19:30;;;;;;;3.05;1.10;;;;;;;17.90;68.36;101294.41;6322644;22;20025;-89
2022/10/25 05:21:55;;;;;;;3.15;1.23;;;;;;;17.91;68.61;101287.47;6297495;22;20006;-90
2022/10/25 05:24:21;;;;;;;4.78;1.08;;;;;;;17.91;68.46;101295.28;6297063;22;20135;-91
2022/10/25 05:26:47;;;;;;;4.47;1.40;;;;;;;17.91;68.70;101292.69;6321991;22;20006;-90
2022/10/25 05:29:12;;;;;;;4.25;1.30;;;;;;;17.89;68.51;101293.53;6349340;22;20009;-88
2022/10/25 05:31:40;;;;;;;5.38;1.45;;;;;;;17.91;68.50;101297.88;6349292;22;20085;-89
2022/10/25 05:34:05;;;;;;;3.45;1.38;;;;;;;17.89;68.27;101305.69;6347853;22;20429;-87
2022/10/25 05:36:32;;;;;;;3.88;1.35;;;;;;;17.89;68.46;101306.56;6347545;22;20010;-86
2022/10/25 05:38:59;;;;;;;3.03;1.10;;;;;;;17.90;68.22;101312.66;6321105;22;20014;-86
2022/10/25 05:41:24;;;;;;;4.18;1.60;;;;;;;17.90;68.49;101317.84;6346834;22;20014;-87
2022/10/25 05:43:50;;;;;;;2.42;1.10;;;;;;;17.91;68.19;101318.72;6321017;22;20037;-87
2022/10/25 05:46:21;;;;;;;4.88;1.50;;;;;;;17.89;68.26;101314.34;6320788;22;20010;-86
2022/10/25 05:48:48;;;;;;;3.97;1.70;;;;;;;17.91;68.34;101329.13;6372704;22;20037;-85
2022/10/25 05:51:31;;;;;;;11.07;4.03;;;;;;;17.94;68.32;101321.28;6350137;22;20475;-87
2022/10/25 05:54:04;;;;;;;14.30;3.90;;;;;;;17.96;68.12;101333.44;6349767;22;20011;-84
2022/10/25 05:56:31;;;;;;;11.85;3.45;;;;;;;17.98;68.19;101328.22;6346337;22;20426;-86
2022/10/25 05:59:00;;;;;;;12.45;3.75;;;;;;;17.99;68.17;101332.59;6354125;22;20006;-83
2022/10/25 06:01:25;;;;;;;8.43;2.90;;;;;;;17.98;68.41;101326.47;6322590;22;20018;-87
2022/10/25 06:03:53;;;;;;;8.48;3.40;;;;;;;17.97;68.19;101332.56;6319144;22;20088;-87
2022/10/25 06:06:18;;;;;;;10.10;3.13;;;;;;;17.99;68.19;101340.41;6319241;22;20509;-86
2022/10/25 06:08:44;;;;;;;8.88;3.00;;;;;;;17.98;68.23;101349.06;6319047;22;20098;-88
2022/10/25 06:11:14;;;;;;;8.70;2.83;;;;;;;17.98;68.03;101344.72;6319175;22;20015;-87
2022/10/25 06:13:39;;;;;;;9.27;3.00;;;;;;;17.99;68.25;101338.66;6344930;22;20017;-89
2022/10/25 06:16:08;;;;;;;12.05;2.97;;;;;;;17.98;68.22;101339.50;6319023;22;19998;-87
2022/10/25 06:18:34;;;;;;;6.78;2.85;;;;;;;17.98;68.02;101346.47;6372617;22;20014;-87
2022/10/25 06:21:01;;;;;;;6.07;2.60;;;;;;;17.98;68.03;101344.72;6344924;22;20340;-87
2022/10/25 06:23:27;;;;;;;8.60;2.85;;;;;;;17.97;68.22;101345.59;6319623;22;20010;-88
2022/10/25 06:25:58;;;;;;;7.70;2.60;;;;;;;17.98;68.17;101349.06;6318698;22;20063;-88
2022/10/25 06:28:23;;;;;;;6.53;2.80;;;;;;;17.98;68.01;101357.72;6371288;22;20017;-88
2022/10/25 06:30:49;;;;;;;8.25;3.03;;;;;;;17.98;68.05;101360.34;6318690;22;20015;-87
2022/10/25 06:33:14;;;;;;;5.88;2.15;;;;;;;18.00;68.02;101362.94;6293384;22;20014;-87
2022/10/25 06:35:39;;;;;;;6.50;2.45;;;;;;;17.98;67.82;101356.88;6318843;22;20002;-88
2022/10/25 06:38:05;;;;;;;7.88;2.50;;;;;;;17.99;67.84;101356.03;6288932;22;20018;-87
2022/10/25 06:40:30;;;;;;;8.23;2.65;;;;;;;17.99;68.13;101350.81;6375389;22;19998;-89
2022/10/25 06:42:55;;;;;;;5.85;2.40;;;;;;;17.98;67.90;101357.72;6347885;22;20006;-88
2022/10/25 06:45:22;;;;;;;6.70;2.40;;;;;;;17.99;67.97;101364.69;6322379;22;20020;-87
2022/10/25 06:47:48;;;;;;;7.07;2.10;;;;;;;17.99;67.91;101363.84;6371607;22;20422;-88
2022/10/25 06:50:13;;;;;;;4.43;1.90;;;;;;;17.99;67.69;101367.28;6372783;22;20016;-88
2022/10/25 06:52:39;;;;;;;6.22;2.55;;;;;;;18.00;67.88;101370.75;6344830;22;20426;-90
2022/10/25 06:55:04;;;;;;;7.43;2.35;;;;;;;17.99;67.83;101380.31;6292827;22;20311;-87
2022/10/25 06:57:30;;;;;;;5.45;1.98;;;;;;;18.00;67.99;101381.16;6292880;22;20047;-87
2022/10/25 06:59:55;;;;;;;6.50;2.35;;;;;;;17.99;68.08;101387.28;6292972;22;20030;-89
2022/10/25 07:02:21;;;;;;;5.18;2.05;;;;;;;18.00;67.79;101389.00;6292823;22;20526;-90
2022/10/25 07:04:46;;;;;;;6.47;2.38;;;;;;;17.99;67.70;101395.94;6313556;22;20091;-87
2022/10/25 07:07:13;;;;;;;5.57;2.10;;;;;;;18.01;67.74;101401.16;6315104;22;20315;-87
2022/10/25 07:09:42;;;;;;;5.80;2.50;;;;;;;17.99;67.66;101395.94;6293467;22;20370;-88
2022/10/25 07:12:07;;;;;;;5.97;2.10;;;;;;;18.00;67.72;101402.00;6344641;22;20002;-87
2022/10/25 07:14:33;;;;;;;5.30;2.28;;;;;;;18.00;67.70;101404.63;6292627;22;20010;-88
2022/10/25 07:16:58;;;;;;;6.10;2.10;;;;;;;17.99;67.77;101403.75;6318237;22;20019;-88
2022/10/25 07:19:23;;;;;;;4.45;2.00;;;;;;;17.99;67.85;101406.34;6292739;22;20010;-88
2022/10/25 07:21:49;;;;;;;4.40;2.20;;;;;;;18.02;67.33;101413.28;6372227;22;19998;-88
2022/10/25 07:24:16;;;;;;;5.60;1.70;;;;;;;18.01;67.52;101415.03;6350600;22;20010;-87
2022/10/25 07:26:41;;;;;;;5.90;1.98;;;;;;;18.03;67.69;101415.00;6348248;22;20038;-88
2022/10/25 07:29:07;;;;;;;5.82;1.80;;;;;;;18.06;67.68;101422.84;6344492;22;20425;-88
2022/10/25 07:31:42;;;;;;;5.15;2.20;;;;;;;18.06;67.42;101428.03;6344927;22;20006;-89
2022/10/25 07:34:10;;;;;;;5.15;2.10;;;;;;;18.05;67.36;101421.97;6370754;22;20031;-89
2022/10/25 07:36:36;;;;;;;4.63;1.75;;;;;;;18.06;67.40;101433.25;6344685;22;20002;-88
2022/10/25 07:39:02;;;;;;;5.28;1.90;;;;;;;18.07;67.48;101427.16;6318507;22;20021;-87
2022/10/25 07:41:27;;;;;;;4.85;1.75;;;;;;;18.06;67.37;101423.69;6344431;22;20009;-88
2022/10/25 07:43:54;;;;;;;5.75;1.90;;;;;;;18.09;67.42;101431.53;6292636;22;20007;-89
2022/10/25 07:46:20;;;;;;;2.65;1.60;;;;;;;18.10;67.28;101432.38;6344099;22;20315;-88
2022/10/25 07:48:45;;;;;;;4.05;1.77;;;;;;;18.10;67.13;101440.19;6344110;22;20010;-89
2022/10/25 07:51:14;;;;;;;7.53;1.92;;;;;;;18.11;67.31;101433.25;6344187;22;20002;-89
2022/10/25 07:53:39;;;;;;;4.07;1.95;;;;;;;18.14;67.33;101438.44;6344775;22;20097;-88
2022/10/25 07:56:06;;;;;;;5.85;1.85;;;;;;;18.17;67.39;101439.31;6343960;22;20431;-89
2022/10/25 07:58:31;;;;;;;3.88;1.60;;;;;;;18.23;66.92;101441.03;6344513;22;20034;-89
2022/10/25 08:01:05;;;;;;;4.20;1.58;;;;;;;18.25;67.01;101447.09;6344527;22;20006;-89
2022/10/25 08:03:30;;;;;;;;;;;;;;;18.24;66.96;101448.81;6344663;22;20055;-90
2022/10/25 08:05:56;;;;;;;3.38;1.80;;;;;;;18.24;67.04;101447.97;6344484;22;20264;-88
2022/10/25 08:08:23;;;;;;;4.53;1.80;;;;;;;18.30;66.89;101454.03;6327679;22;20056;-89
2022/10/25 08:10:49;;;;;;;5.28;1.70;;;;;;;18.27;66.65;101458.41;6344106;22;20055;-88
2022/10/25 08:13:14;;;;;;;4.28;1.70;;;;;;;18.25;66.93;101461.00;6372070;22;19998;-88
2022/10/25 08:15:39;;;;;;;3.78;1.60;;;;;;;18.24;66.92;101468.81;6343724;22;20009;-88
2022/10/25 08:18:06;;;;;;;3.65;1.65;;;;;;;18.22;66.79;101460.97;6318038;22;20029;-89
2022/10/25 08:20:32;;;;;;;3.30;1.50;;;;;;;18.21;66.79;101464.47;6294888;22;20085;-87
2022/10/25 08:22:58;;;;;;;3.53;1.60;;;;;;;18.19;66.73;101463.59;6344418;22;20053;-88
2022/10/25 08:25:24;;;;;;;4.68;1.80;;;;;;;18.19;66.78;101465.34;6369919;22;20002;-89
2022/10/25 08:27:50;;;;;;;4.15;1.52;;;;;;;18.19;66.85;101467.97;6344097;22;20014;-89
2022/10/25 08:30:15;;;;;;;3.45;1.38;;;;;;;18.20;66.58;101473.16;6318072;22;20006;-89
2022/10/25 08:32:41;;;;;;;2.65;1.33;;;;;;;18.26;66.72;101473.13;6291692;22;20010;-89
2022/10/25 08:35:06;;;;;;;3.42;1.42;;;;;;;18.26;66.88;101480.09;6317468;22;20013;-89
2022/10/25 08:37:32;;;;;;;4.45;1.35;;;;;;;18.25;66.78;101475.78;6312887;22;20461;-89
2022/10/25 08:39:57;;;;;;;3.05;1.25;;;;;;;18.22;66.84;101481.81;6336944;22;20014;-88
2022/10/25 08:42:48;;;;;;;3.47;1.45;;;;;;;18.22;66.56;101479.22;6317849;22;20007;-88
2022/10/25 08:45:24;;;;;;;2.92;1.33;;;;;;;18.21;66.65;101485.31;6343966;22;20338;-87
2022/10/25 08:47:53;;;;;;;2.42;1.20;;;;;;;18.25;66.79;101483.59;6344408;22;20311;-88
2022/10/25 08:50:27;;;;;;;2.72;1.20;;;;;;;18.24;66.52;101487.91;6351305;22;20026;-82
2022/10/25 08:52:55;;;;;;;2.97;1.50;;;;;;;18.24;66.57;101485.28;6345360;22;19998;-89
2022/10/25 08:55:45;;;;;;;3.47;1.50;;;;;;;18.26;66.53;101483.56;6343988;22;20002;-88
2022/10/25 08:58:19;;;;;;;2.58;1.10;;;;;;;18.26;66.55;101490.50;6332371;22;20489;-87
2022/10/25 09:00:47;;;;;;;4.40;1.33;;;;;;;18.25;66.38;101492.25;6371998;22;20005;-88
2022/10/25 09:03:25;;;;;;;3.00;1.35;;;;;;;18.27;66.55;101482.69;6344789;22;20438;-88
2022/10/25 09:06:32;;;;;;;2.65;1.30;;;;;;;18.30;66.56;101490.50;6343892;22;20002;-90
2022/10/25 09:09:04;;;;;;;2.53;1.20;;;;;;;18.29;66.39;101498.31;6343671;22;20505;-89
2022/10/25 09:11:39;;;;;;;3.30;1.40;;;;;;;18.32;66.38;101497.47;6343611;22;20030;-89
2022/10/25 09:14:29;;;;;;;2.88;1.35;;;;;;;18.34;66.24;101498.31;6343795;22;20036;-89
2022/10/25 09:17:12;;;;;;;2.95;1.30;;;;;;;18.35;66.21;101500.91;6344273;22;20415;-88
2022/10/25 09:20:09;;;;;;;2.80;1.37;;;;;;;18.36;66.28;101501.81;6371429;22;20362;-88
2022/10/25 09:22:53;;;;;;;3.63;1.45;;;;;;;18.36;66.34;101512.22;6343869;22;20224;-88
2022/10/25 09:25:18;;;;;;;;;;;;;;;18.34;66.25;101509.63;6344994;22;20009;-89
2022/10/25 09:28:15;;;;;;;3.33;1.50;;;;;;;18.31;66.10;101514.81;6344401;22;19905;-89
2022/10/25 09:30:43;;;;;;;3.20;1.30;;;;;;;18.29;66.21;101513.94;6346460;22;20240;-89
2022/10/25 09:33:11;;;;;;;4.80;1.35;;;;;;;18.26;66.50;101516.56;6327514;22;20009;-86
2022/10/25 09:35:52;;;;;;;3.67;1.50;;;;;;;18.26;66.22;101521.78;6346044;22;19990;-87
2022/10/25 09:38:32;;;;;;;2.28;1.15;;;;;;;18.26;66.40;101516.56;6345269;22;20051;-89
2022/10/25 09:41:04;;;;;;;3.15;1.42;;;;;;;18.26;66.39;101511.34;6345931;22;20002;-87
2022/10/25 09:43:43;;;;;;;2.25;1.02;;;;;;;18.25;66.27;101510.50;6371900;22;20006;-88
2022/10/25 09:46:18;;;;;;;2.22;1.25;;;;;;;18.27;66.43;101521.78;6373256;22;20096;-89
2022/10/25 09:49:17;;;;;;;2.45;1.13;;;;;;;18.29;66.30;101530.47;6345149;22;20009;-89
2022/10/25 09:51:56;;;;;;;2.28;1.02;;;;;;;18.29;66.32;101533.06;6345047;22;20029;-88
2022/10/25 09:54:38;;;;;;;2.58;1.23;;;;;;;18.26;66.26;101538.28;6373477;22;20048;-89
2022/10/25 09:57:04;;;;;;;2.25;1.00;;;;;;;18.28;66.34;101544.34;6345149;22;20387;-90
2022/10/25 09:59:29;;;;;;;2.72;1.30;;;;;;;18.29;66.33;101546.09;6319277;22;20033;-88
2022/10/25 10:01:55;;;;;;;2.17;1.08;;;;;;;18.28;66.21;101546.94;6371599;22;20006;-90
2022/10/25 10:04:34;;;;;;;3.00;1.27;;;;;;;18.29;66.16;101540.00;6293594;22;20002;-89
2022/10/25 10:07:25;;;;;;;2.38;1.10;;;;;;;18.29;66.17;101550.41;6371817;22;20071;-88
2022/10/25 10:09:55;;;;;;;2.45;1.08;;;;;;;18.28;66.20;101549.56;6349926;22;20064;-89
2022/10/25 10:12:50;;;;;;;2.67;1.13;;;;;;;18.29;66.26;101551.31;6377666;22;20003;-88
2022/10/25 10:15:29;;;;;;;2.85;1.25;;;;;;;18.28;66.27;101546.94;6363974;22;20006;-86
2022/10/25 10:18:25;;;;;;;3.20;1.33;;;;;;;18.30;66.14;101560.84;6376609;22;20029;-89
2022/10/25 10:21:11;;;;;;;2.65;1.10;;;;;;;18.30;66.10;101558.25;6347463;22;20002;-89
2022/10/25 10:23:54;;;;;;;3.28;1.30;;;;;;;18.29;66.24;101555.63;6347218;22;20013;-89
2022/10/25 10:26:29;;;;;;;2.72;1.00;;;;;;;18.30;66.51;101560.84;6345381;22;20081;-88
2022/10/25 10:29:03;;;;;;;2.65;0.98;;;;;;;18.31;66.22;101566.91;6345034;22;20430;-88
2022/10/25 10:31:38;;;;;;;3.45;1.20;;;;;;;18.30;66.09;101563.44;6345345;22;20010;-89
2022/10/25 10:34:07;;;;;;;2.33;1.08;;;;;;;18.32;66.03;101560.84;6345293;22;20132;-89
2022/10/25 10:36:34;;;;;;;2.03;1.00;;;;;;;18.33;66.21;101565.19;6371577;22;20147;-88
2022/10/25 10:39:20;;;;;;;2.70;1.00;;;;;;;18.33;66.03;101561.72;6344392;22;20088;-90
2022/10/25 10:42:01;;;;;;;4.07;1.27;;;;;;;18.32;66.13;101568.69;6345863;22;20025;-89
2022/10/25 10:44:27;;;;;;;2.63;1.10;;;;;;;18.30;66.10;101567.81;6344899;22;20069;-87
2022/10/25 10:46:56;;;;;;;3.25;1.38;;;;;;;18.30;66.03;101576.47;6319100;22;20030;-89
2022/10/25 10:49:35;;;;;;;1.95;0.90;;;;;;;18.33;66.01;101572.13;6373053;22;20009;-90
2022/10/25 10:52:02;;;;;;;1.75;0.93;;;;;;;18.35;65.94;101575.63;6373085;22;20370;-88
2022/10/25 10:54:31;;;;;;;2.17;1.02;;;;;;;18.36;66.02;101580.84;6344554;22;20008;-90
2022/10/25 10:57:00;;;;;;;4.10;1.20;;;;;;;18.35;65.94;101576.47;6371663;22;20422;-88
2022/10/25 10:59:36;;;;;;;1.25;0.95;;;;;;;18.37;65.92;101576.47;6355618;22;20014;-88
2022/10/25 11:02:28;;;;;;;2.35;1.10;;;;;;;18.35;65.83;101576.47;6344789;22;20006;-90
2022/10/25 11:04:54;;;;;;;2.17;1.08;;;;;;;18.38;66.03;101581.69;6344976;22;20025;-89
2022/10/25 11:07:33;;;;;;;1.92;0.88;;;;;;;18.41;65.92;101580.81;6344028;22;20011;-89
2022/10/25 11:10:14;;;;;;;1.85;0.80;;;;;;;18.42;65.86;101579.94;6344555;22;20014;-89
2022/10/25 11:12:39;;;;;;;2.65;1.10;;;;;;;18.40;65.97;101581.69;6344698;22;20448;-90
2022/10/25 11:15:15;;;;;;;1.85;0.93;;;;;;;18.41;65.92;101583.44;6318843;22;20096;-90
2022/10/25 11:17:57;;;;;;;1.63;1.00;;;;;;;18.41;65.95;101575.63;6345237;22;20097;-87
2022/10/25 11:20:33;;;;;;;1.88;0.90;;;;;;;18.44;65.89;101580.81;6344749;22;20487;-88
2022/10/25 11:23:51;;;;;;;3.72;0.93;;;;;;;18.44;65.83;101584.31;6344578;22;20444;-90
2022/10/25 11:26:54;;;;;;;2.00;1.02;;;;;;;18.44;65.88;101580.81;6245246;23;20487;-89
2022/10/25 11:29:52;;;;;;;2.67;1.08;;;;;;;18.42;65.85;101583.44;6281119;22;20011;-89
2022/10/25 11:32:35;;;;;;;2.35;0.90;;;;;;;18.42;65.80;101588.66;6320799;22;20012;-87
2022/10/25 11:35:28;;;;;;;1.88;1.05;;;;;;;18.40;65.63;101581.69;6344646;22;20089;-90
2022/10/25 11:38:20;;;;;;;2.45;1.00;;;;;;;18.41;65.71;101586.03;6344447;22;20359;-90
2022/10/25 11:41:26;;;;;;;2.30;0.90;;;;;;;18.39;65.74;101585.16;6353648;22;20020;-84
2022/10/25 11:44:25;;;;;;;1.30;0.80;;;;;;;18.39;65.82;101587.78;6346177;22;20047;-90
2022/10/25 11:47:12;;;;;;;2.35;0.90;;;;;;;18.42;65.71;101588.66;6327588;22;20014;-88
2022/10/25 11:50:13;;;;;;;2.38;0.90;;;;;;;18.42;65.72;101586.03;6344540;22;20002;-88
2022/10/25 11:52:57;;;;;;;1.95;0.88;;;;;;;18.42;65.54;101579.94;6343660;22;20380;-90
2022/10/25 11:55:46;;;;;;;2.45;0.90;;;;;;;18.42;65.57;101578.22;6344481;22;20165;-90
2022/10/25 11:58:42;;;;;;;2.92;0.90;;;;;;;18.44;65.66;101593.84;6344442;22;19998;-89
2022/10/25 12:01:29;;;;;;;1.45;0.80;;;;;;;18.44;65.54;101586.91;6344020;22;20009;-89